createdAt,value
2022-10-05T00:00:01.928Z,0.00
2022-10-05T00:10:01.270Z,0.00
2022-10-05T00:20:00.157Z,0.00
2022-10-05T00:30:00.962Z,0.00
2022-10-05T00:40:01.944Z,0.00
2022-10-05T00:50:01.055Z,0.00
2022-10-05T01:00:01.070Z,0.00
2022-10-05T01:10:01.264Z,0.00
2022-10-05T01:20:00.987Z,0.00
2022-10-05T01:30:00.138Z,0.00
2022-10-05T01:40:01.039Z,0.00
2022-10-05T01:50:00.821Z,0.00
2022-10-05T02:00:01.092Z,0.00
2022-10-05T02:10:01.151Z,0.00
2022-10-05T02:20:01.344Z,0.00
2022-10-05T02:30:01.051Z,0.00
2022-10-05T02:40:01.169Z,0.00
2022-10-05T02:50:00.124Z,0.00
2022-10-05T03:00:01.294Z,0.00
2022-10-05T03:10:02.294Z,0.00
2022-10-05T03:20:01.097Z,0.00
2022-10-05T03:30:00.858Z,0.00
2022-10-05T03:40:01.775Z,0.00
2022-10-05T03:50:01.267Z,0.00
2022-10-05T04:00:01.109Z,0.00
2022-10-05T04:10:00.112Z,0.00
2022-10-05T04:30:01.266Z,0.00
2022-10-05T04:50:01.318Z,1.25
2022-10-05T05:00:01.030Z,7.70
2022-10-05T05:10:01.226Z,13.33
2022-10-05T05:20:01.282Z,43.33
2022-10-05T05:30:01.452Z,196.67
2022-10-05T05:40:00.963Z,345.42
2022-10-05T05:50:06.528Z,534.17
2022-10-05T06:00:00.155Z,386.67
2022-10-05T06:10:01.238Z,496.67
2022-10-05T06:20:05.159Z,1189.58
2022-10-05T06:30:01.397Z,731.67
2022-10-05T06:40:01.432Z,1929.17
2022-10-05T06:50:00.120Z,841.67
2022-10-05T07:00:01.279Z,2251.25
2022-10-05T07:10:01.253Z,2186.67
2022-10-05T07:20:01.294Z,2295.00
2022-10-05T07:30:01.024Z,2402.92
2022-10-05T07:40:01.663Z,1486.67
2022-10-05T07:50:00.136Z,3202.50
2022-10-05T08:00:00.185Z,4080.83
2022-10-05T08:10:01.397Z,1890.00
2022-10-05T08:20:01.321Z,4750.00
2022-10-05T08:30:01.244Z,4663.75
2022-10-05T08:40:01.258Z,4568.75
2022-10-05T08:50:01.135Z,2370.00
2022-10-05T09:00:00.139Z,5725.83
2022-10-05T09:10:01.806Z,5447.92
2022-10-05T09:20:00.167Z,6074.58
2022-10-05T09:30:01.183Z,6252.08
2022-10-05T09:40:01.591Z,6087.92
2022-10-05T09:50:00.980Z,7288.75
2022-10-05T10:00:01.373Z,3996.67
2022-10-05T10:10:00.993Z,7725.42
2022-10-05T10:20:00.162Z,7562.92
2022-10-05T10:30:01.019Z,6224.58
2022-10-05T10:50:00.150Z,3838.33
2022-10-05T11:00:01.245Z,8158.33
2022-10-05T11:10:01.008Z,17265.42
2022-10-05T11:20:03.893Z,28516.67
2022-10-05T11:30:00.147Z,11622.08
2022-10-05T11:40:01.043Z,25026.67
2022-10-05T11:50:01.275Z,7612.08
2022-10-05T12:00:00.165Z,2718.33
2022-10-05T12:10:00.992Z,10547.08
2022-10-05T12:20:01.498Z,22209.17
2022-10-05T12:30:00.974Z,26392.50
2022-10-05T12:40:01.428Z,26279.17
2022-10-05T12:50:02.784Z,25453.75
2022-10-05T13:00:01.111Z,24478.75
2022-10-05T13:10:01.062Z,16148.33
2022-10-05T13:20:01.046Z,15272.92
2022-10-05T13:30:01.042Z,22547.50
2022-10-05T13:40:01.457Z,23461.67
2022-10-05T13:50:01.785Z,23103.33
2022-10-05T14:00:00.372Z,23057.50
2022-10-05T14:10:01.282Z,22159.17
2022-10-05T14:20:01.080Z,20453.75
2022-10-05T14:30:00.942Z,20255.00
2022-10-05T14:40:03.300Z,18971.25
2022-10-05T14:50:00.152Z,17954.17
2022-10-05T15:00:00.996Z,16677.92
2022-10-05T15:10:02.536Z,15007.08
2022-10-05T15:20:01.270Z,13363.33
2022-10-05T15:30:01.047Z,11867.50
2022-10-05T15:40:00.161Z,6390.42
2022-10-05T15:50:01.231Z,1475.00
2022-10-05T16:10:00.126Z,2330.42
2022-10-05T16:20:01.074Z,793.33
2022-10-05T16:30:01.465Z,350.42
2022-10-05T16:40:00.166Z,75.00
2022-10-05T16:50:02.207Z,53.33
2022-10-05T17:00:01.319Z,10.64
2022-10-05T17:10:00.155Z,1.58
2022-10-05T17:20:01.083Z,0.23
2022-10-05T17:30:01.889Z,0.00
2022-10-05T17:40:01.170Z,0.00
2022-10-05T17:50:01.052Z,0.00
2022-10-05T18:00:01.904Z,0.00
2022-10-05T18:10:00.942Z,0.00
2022-10-05T18:20:01.359Z,0.00
2022-10-05T18:30:02.846Z,0.00
2022-10-05T18:40:00.161Z,0.11
2022-10-05T18:50:01.501Z,0.00
2022-10-05T19:00:00.137Z,0.00
2022-10-05T19:10:01.054Z,0.00
2022-10-05T19:20:01.523Z,0.11
2022-10-05T19:30:01.028Z,0.00
2022-10-05T19:40:02.524Z,0.00
2022-10-05T19:50:01.240Z,0.00
2022-10-05T20:00:01.151Z,0.00
2022-10-05T20:10:01.010Z,0.00
2022-10-05T20:20:01.259Z,0.00
2022-10-05T20:30:01.526Z,0.00
2022-10-05T20:40:02.792Z,0.00
2022-10-05T20:50:02.013Z,0.00
2022-10-05T21:00:01.582Z,0.00
2022-10-05T21:10:01.443Z,0.00
2022-10-05T21:20:02.533Z,0.00
2022-10-05T21:30:00.122Z,0.00
2022-10-05T21:40:01.021Z,0.00
2022-10-05T21:50:00.142Z,0.00
2022-10-05T22:00:01.036Z,0.00
2022-10-05T22:10:01.025Z,0.00
2022-10-05T22:20:01.034Z,0.00
2022-10-05T22:30:01.247Z,0.00
2022-10-05T22:40:01.274Z,0.00
2022-10-05T22:50:01.921Z,0.00
2022-10-05T23:00:01.320Z,0.00
2022-10-05T23:10:00.103Z,0.00
2022-10-05T23:20:01.318Z,0.00
2022-10-05T23:30:00.167Z,0.00
2022-10-05T23:40:02.122Z,0.00
2022-10-05T23:50:00.146Z,0.00
